Time;durP1;ratioP1;P1;durP2;ratioP2;P2;SDS_P1;SDS_P2;PMS_P1;PMS_P2;Temp;Humidity;BMP_temperature;BMP_pressure;BME280_temperature;BME280_humidity;BME280_pressure;Samples;Min_cycle;Max_cycle;Signal;HPM_P1;HPM_P2
2023/10/30 00:00:54;;;;;;;17.70;2.58;;;12.20;99.90;;;;;;5069331;28;20494;-57
2023/10/30 00:03:19;;;;;;;14.50;2.15;;;12.20;99.90;;;;;;5069602;28;20019;-54
2023/10/30 00:05:45;;;;;;;17.50;1.70;;;12.20;99.90;;;;;;5064262;28;20042;-58
2023/10/30 00:08:10;;;;;;;13.43;1.33;;;12.20;99.90;;;;;;5059392;28;20604;-56
2023/10/30 00:10:36;;;;;;;12.65;1.35;;;12.30;99.90;;;;;;5066429;28;20521;-54
2023/10/30 00:13:02;;;;;;;14.23;2.10;;;12.20;99.90;;;;;;5060781;28;20382;-56
2023/10/30 00:15:27;;;;;;;9.73;1.33;;;12.20;99.90;;;;;;5063211;28;20035;-55
2023/10/30 00:17:53;;;;;;;11.32;1.90;;;12.20;99.90;;;;;;5062048;28;20099;-59
2023/10/30 00:20:18;;;;;;;7.22;1.83;;;12.40;99.90;;;;;;5065605;28;20036;-57
2023/10/30 00:22:45;;;;;;;11.38;1.48;;;12.40;99.90;;;;;;5073995;28;20025;-59
2023/10/30 00:25:10;;;;;;;13.15;1.52;;;12.40;99.90;;;;;;5064538;28;20021;-58
2023/10/30 00:27:36;;;;;;;11.07;2.13;;;12.40;99.90;;;;;;5069336;28;20450;-57
2023/10/30 00:30:02;;;;;;;10.52;1.30;;;12.50;99.90;;;;;;5061800;28;20100;-58
2023/10/30 00:32:27;;;;;;;6.90;1.25;;;12.50;99.90;;;;;;5064508;28;20116;-57
2023/10/30 00:34:53;;;;;;;16.25;1.40;;;12.50;99.90;;;;;;5063883;28;20021;-59
2023/10/30 00:37:18;;;;;;;18.58;1.90;;;12.50;99.90;;;;;;5060777;28;20055;-57
2023/10/30 00:39:44;;;;;;;15.65;1.50;;;12.40;99.90;;;;;;5065126;28;20108;-58
2023/10/30 00:42:09;;;;;;;10.77;1.70;;;12.50;99.90;;;;;;5072605;28;20024;-58
2023/10/30 00:44:38;;;;;;;7.85;1.67;;;12.40;99.90;;;;;;5064430;28;20056;-57
2023/10/30 00:47:04;;;;;;;14.63;1.95;;;12.40;99.90;;;;;;5059024;28;20025;-56
2023/10/30 00:49:30;;;;;;;10.70;1.38;;;12.40;99.90;;;;;;5063021;28;20024;-56
2023/10/30 00:51:55;;;;;;;13.70;2.28;;;12.50;99.90;;;;;;5072038;28;20101;-55
2023/10/30 00:54:21;;;;;;;9.48;1.90;;;12.40;99.90;;;;;;5066857;28;20091;-57
2023/10/30 00:56:46;;;;;;;16.05;1.60;;;12.40;99.90;;;;;;5069140;28;20441;-60
2023/10/30 00:59:12;;;;;;;13.85;1.67;;;12.40;99.90;;;;;;5065493;28;20013;-58
2023/10/30 01:01:37;;;;;;;4.25;1.20;;;12.40;99.90;;;;;;5067573;28;20025;-55
2023/10/30 01:04:05;;;;;;;8.13;1.15;;;12.40;99.90;;;;;;5064180;28;20016;-55
2023/10/30 01:06:30;;;;;;;8.80;1.55;;;12.40;99.90;;;;;;5063342;28;20437;-60
2023/10/30 01:08:56;;;;;;;16.58;1.85;;;12.40;99.90;;;;;;5063898;28;20097;-56
2023/10/30 01:11:22;;;;;;;8.52;1.73;;;12.40;99.90;;;;;;5062786;28;20020;-58
2023/10/30 01:13:47;;;;;;;18.98;2.80;;;12.30;99.90;;;;;;5066963;28;20040;-58
2023/10/30 01:16:13;;;;;;;12.10;2.40;;;12.30;99.90;;;;;;5066607;28;20028;-56
2023/10/30 01:18:39;;;;;;;12.70;2.42;;;12.30;99.90;;;;;;5061911;28;20029;-57
2023/10/30 01:21:11;;;;;;;12.73;1.50;;;12.30;99.90;;;;;;5064526;28;20028;-56
2023/10/30 01:23:37;;;;;;;18.52;2.03;;;12.20;99.90;;;;;;5067675;28;20028;-57
2023/10/30 01:26:03;;;;;;;16.35;2.40;;;12.20;99.90;;;;;;5067902;28;20105;-58
2023/10/30 01:28:29;;;;;;;15.88;2.05;;;12.30;99.90;;;;;;5066899;28;20033;-58
2023/10/30 01:30:54;;;;;;;9.48;1.52;;;12.30;99.90;;;;;;5063798;28;20031;-57
2023/10/30 01:33:20;;;;;;;13.93;1.50;;;12.30;99.90;;;;;;5066642;28;20037;-58
2023/10/30 01:35:46;;;;;;;12.05;1.73;;;12.30;99.90;;;;;;5071482;28;20031;-57
2023/10/30 01:38:11;;;;;;;12.98;1.70;;;12.30;99.90;;;;;;5067574;28;20483;-58
2023/10/30 01:40:37;;;;;;;12.48;1.70;;;12.30;99.90;;;;;;5065919;28;20029;-57
2023/10/30 01:43:09;;;;;;;18.48;1.85;;;12.30;99.90;;;;;;5063773;28;20024;-58
2023/10/30 01:45:34;;;;;;;9.70;1.77;;;12.20;99.90;;;;;;5063500;28;20507;-53
2023/10/30 01:48:01;;;;;;;16.02;1.63;;;12.20;99.90;;;;;;5059647;28;20040;-56
2023/10/30 01:50:26;;;;;;;8.13;1.42;;;12.20;99.90;;;;;;5066570;28;20499;-57
2023/10/30 01:52:52;;;;;;;14.65;2.83;;;12.10;99.90;;;;;;5069681;28;20063;-57
2023/10/30 01:55:18;;;;;;;11.45;1.40;;;12.00;99.90;;;;;;5067366;28;20112;-53
2023/10/30 01:57:44;;;;;;;7.57;1.45;;;12.00;99.90;;;;;;5063863;28;20390;-58
2023/10/30 02:00:11;;;;;;;14.65;1.52;;;12.00;99.90;;;;;;5060326;28;21458;-56
2023/10/30 02:02:38;;;;;;;11.45;2.05;;;12.00;99.90;;;;;;5062131;28;20054;-61
2023/10/30 02:05:05;;;;;;;8.43;1.90;;;12.00;99.90;;;;;;5067166;28;20054;-61
2023/10/30 02:07:31;;;;;;;14.10;2.13;;;12.10;99.90;;;;;;5062135;28;20433;-55
2023/10/30 02:09:57;;;;;;;13.93;1.95;;;12.10;99.90;;;;;;5069602;28;20021;-55
2023/10/30 02:12:22;;;;;;;13.73;1.98;;;12.20;99.90;;;;;;5064964;28;20509;-60
2023/10/30 02:14:48;;;;;;;23.63;2.40;;;12.20;99.90;;;;;;5059036;28;20407;-57
2023/10/30 02:17:13;;;;;;;14.45;1.83;;;12.20;99.90;;;;;;5064457;28;20525;-55
2023/10/30 02:19:39;;;;;;;21.65;1.95;;;12.20;99.90;;;;;;5065328;28;20039;-58
2023/10/30 02:22:05;;;;;;;13.60;1.88;;;12.20;99.90;;;;;;5059437;28;20036;-58
2023/10/30 02:24:30;;;;;;;9.55;1.70;;;12.20;99.90;;;;;;5065415;28;20052;-61
2023/10/30 02:26:56;;;;;;;10.10;1.50;;;12.20;99.90;;;;;;5059958;28;20947;-57
2023/10/30 02:29:23;;;;;;;10.95;1.35;;;12.20;99.90;;;;;;5059450;28;20486;-55
2023/10/30 02:31:50;;;;;;;13.80;1.70;;;12.20;99.90;;;;;;5063273;28;20033;-55
2023/10/30 02:34:15;;;;;;;18.58;1.70;;;12.30;99.90;;;;;;5059655;28;20503;-58
2023/10/30 02:36:41;;;;;;;20.60;1.88;;;12.30;99.90;;;;;;5063836;28;20071;-53
2023/10/30 02:39:10;;;;;;;16.83;2.05;;;12.20;99.90;;;;;;5059247;28;20048;-55
2023/10/30 02:41:35;;;;;;;11.60;1.42;;;12.20;99.90;;;;;;5062579;28;20096;-57
2023/10/30 02:44:01;;;;;;;10.23;1.83;;;12.20;99.90;;;;;;5065200;28;20111;-57
2023/10/30 02:46:27;;;;;;;9.00;1.67;;;12.30;99.90;;;;;;5068696;28;20028;-58
2023/10/30 02:48:53;;;;;;;14.18;1.42;;;12.30;99.90;;;;;;5061498;28;20036;-57
2023/10/30 02:51:18;;;;;;;19.63;2.05;;;12.30;99.90;;;;;;5066747;28;20558;-59
2023/10/30 02:53:44;;;;;;;7.22;1.30;;;12.30;99.90;;;;;;5060648;28;20172;-58
2023/10/30 02:56:10;;;;;;;7.93;1.77;;;12.30;99.90;;;;;;5067562;28;20066;-58
2023/10/30 02:58:35;;;;;;;9.75;1.65;;;12.30;99.90;;;;;;5057746;28;20028;-60
2023/10/30 03:01:02;;;;;;;10.88;1.77;;;12.30;99.90;;;;;;5063335;28;20029;-57
2023/10/30 03:03:28;;;;;;;12.15;1.45;;;12.30;99.90;;;;;;5066063;28;20036;-60
2023/10/30 03:05:54;;;;;;;9.90;1.70;;;12.30;99.90;;;;;;5065212;28;20029;-57
2023/10/30 03:08:20;;;;;;;9.95;1.50;;;12.30;99.90;;;;;;5067854;28;20032;-56
2023/10/30 03:10:47;;;;;;;9.25;1.63;;;12.30;99.90;;;;;;5061435;28;20498;-58
2023/10/30 03:13:12;;;;;;;12.85;2.10;;;12.30;99.90;;;;;;5060777;28;20020;-58
2023/10/30 03:15:38;;;;;;;8.18;1.45;;;12.30;99.90;;;;;;5062532;28;20433;-58
2023/10/30 03:18:03;;;;;;;12.25;1.50;;;12.30;99.90;;;;;;5055415;28;20116;-54
2023/10/30 03:20:29;;;;;;;18.23;2.03;;;12.30;99.90;;;;;;5055973;28;20028;-56
2023/10/30 03:22:55;;;;;;;10.88;1.33;;;12.30;99.90;;;;;;5063919;28;20399;-55
2023/10/30 03:25:20;;;;;;;11.90;1.42;;;12.30;99.90;;;;;;5064381;28;20060;-58
2023/10/30 03:27:46;;;;;;;5.03;1.25;;;12.30;99.90;;;;;;5064495;28;20040;-57
2023/10/30 03:30:11;;;;;;;13.20;1.23;;;12.30;99.90;;;;;;5072697;28;20482;-56
2023/10/30 03:32:37;;;;;;;11.10;1.35;;;12.20;99.90;;;;;;5064179;28;20554;-60
2023/10/30 03:35:03;;;;;;;11.23;1.70;;;12.20;99.90;;;;;;5062425;28;20025;-57
2023/10/30 03:37:28;;;;;;;7.53;1.30;;;12.20;99.90;;;;;;5057941;28;20081;-58
2023/10/30 03:39:54;;;;;;;10.43;1.50;;;12.20;99.90;;;;;;5059827;28;20115;-60
2023/10/30 03:42:20;;;;;;;10.45;1.60;;;12.20;99.90;;;;;;5062332;28;20109;-60
2023/10/30 03:44:45;;;;;;;7.28;1.52;;;12.10;99.90;;;;;;5065649;28;20036;-59
2023/10/30 03:47:11;;;;;;;11.70;1.50;;;12.10;99.90;;;;;;5064299;28;20029;-61
2023/10/30 03:49:37;;;;;;;12.98;2.65;;;12.00;99.90;;;;;;5058820;28;20071;-56
2023/10/30 03:52:02;;;;;;;17.05;1.75;;;12.00;99.90;;;;;;5060102;28;20430;-59
2023/10/30 03:54:28;;;;;;;9.07;1.65;;;12.00;99.90;;;;;;5058231;28;20054;-60
2023/10/30 03:56:53;;;;;;;7.70;1.40;;;11.90;99.90;;;;;;5057842;28;20083;-54
2023/10/30 03:59:20;;;;;;;8.65;1.48;;;11.90;99.90;;;;;;5055302;28;20075;-58
2023/10/30 04:01:45;;;;;;;10.68;1.40;;;11.90;99.90;;;;;;5059385;28;20056;-55
2023/10/30 04:04:11;;;;;;;13.55;1.70;;;11.90;99.90;;;;;;5055416;28;20040;-55
2023/10/30 04:06:37;;;;;;;10.23;1.55;;;11.90;99.90;;;;;;5055453;28;20032;-58
2023/10/30 04:09:05;;;;;;;10.20;1.75;;;11.80;99.90;;;;;;5061482;28;20024;-59
2023/10/30 04:11:32;;;;;;;6.22;1.55;;;11.80;99.90;;;;;;5059854;28;20036;-56
2023/10/30 04:13:58;;;;;;;13.98;1.88;;;11.80;99.90;;;;;;5062326;28;20057;-55
2023/10/30 04:16:23;;;;;;;11.75;1.92;;;11.80;99.90;;;;;;5059283;28;20057;-56
2023/10/30 04:18:49;;;;;;;11.38;1.83;;;11.80;99.90;;;;;;5068784;28;20029;-60
2023/10/30 04:21:14;;;;;;;14.10;1.45;;;11.70;99.90;;;;;;5065775;28;20027;-58
2023/10/30 04:23:42;;;;;;;15.00;1.52;;;11.70;99.90;;;;;;5064589;28;20016;-60
2023/10/30 04:26:08;;;;;;;10.90;1.70;;;11.80;99.90;;;;;;5065504;28;20121;-60
2023/10/30 04:28:33;;;;;;;5.63;1.20;;;11.80;99.90;;;;;;5056089;28;20476;-59
2023/10/30 04:30:59;;;;;;;8.18;1.27;;;11.70;99.90;;;;;;5062712;28;20021;-58
2023/10/30 04:33:25;;;;;;;11.98;1.90;;;11.70;99.90;;;;;;5065662;28;20017;-57
2023/10/30 04:35:50;;;;;;;13.80;1.85;;;11.80;99.90;;;;;;5061994;28;20032;-56
2023/10/30 04:38:16;;;;;;;10.98;1.95;;;11.80;99.90;;;;;;5064878;28;20020;-57
2023/10/30 04:40:41;;;;;;;14.73;2.53;;;11.80;99.90;;;;;;5064306;28;20029;-54
2023/10/30 04:43:07;;;;;;;7.57;1.50;;;11.80;99.90;;;;;;5057648;28;20029;-58
2023/10/30 04:45:33;;;;;;;12.98;1.73;;;11.80;99.90;;;;;;5058861;28;20445;-60
2023/10/30 04:47:58;;;;;;;12.93;1.50;;;11.80;99.90;;;;;;5056962;28;20122;-58
2023/10/30 04:50:24;;;;;;;16.80;1.65;;;11.80;99.90;;;;;;5068561;28;20395;-59
2023/10/30 04:52:49;;;;;;;15.40;1.63;;;11.90;99.90;;;;;;5058879;28;20032;-59
2023/10/30 04:55:15;;;;;;;12.18;1.65;;;11.90;99.90;;;;;;5063073;28;20479;-60
2023/10/30 04:57:40;;;;;;;8.02;1.30;;;11.90;99.90;;;;;;5059061;28;20064;-55
2023/10/30 05:00:07;;;;;;;16.13;2.10;;;11.90;99.90;;;;;;5064369;28;20091;-55
2023/10/30 05:02:33;;;;;;;12.88;1.92;;;11.90;99.90;;;;;;5052632;28;20039;-57
2023/10/30 05:04:58;;;;;;;15.05;1.80;;;11.90;99.90;;;;;;5060873;28;20111;-58
2023/10/30 05:07:24;;;;;;;9.48;1.40;;;11.90;99.90;;;;;;5056666;28;20110;-59
2023/10/30 05:09:49;;;;;;;12.63;1.73;;;11.90;99.90;;;;;;5070687;28;20029;-58
2023/10/30 05:12:15;;;;;;;9.95;1.73;;;11.90;99.90;;;;;;5062986;28;20040;-60
2023/10/30 05:14:40;;;;;;;12.90;2.13;;;11.90;99.90;;;;;;5065641;28;20041;-60
2023/10/30 05:17:06;;;;;;;10.35;2.28;;;12.00;99.90;;;;;;5063775;28;20029;-59
2023/10/30 05:19:31;;;;;;;8.13;1.38;;;12.00;99.90;;;;;;5063520;28;20032;-58
2023/10/30 05:21:57;;;;;;;7.38;1.73;;;12.00;99.90;;;;;;5065848;28;20063;-54
2023/10/30 05:24:23;;;;;;;13.75;2.20;;;12.00;99.90;;;;;;5064654;28;20049;-58
2023/10/30 05:26:52;;;;;;;13.57;2.13;;;12.10;99.90;;;;;;5063189;28;20127;-58
2023/10/30 05:29:17;;;;;;;13.10;1.90;;;12.10;99.90;;;;;;5066580;28;20031;-60
2023/10/30 05:31:43;;;;;;;19.10;1.85;;;12.20;99.90;;;;;;5059025;28;20108;-60
2023/10/30 05:34:09;;;;;;;8.07;1.63;;;12.20;99.90;;;;;;5064854;28;20068;-56
2023/10/30 05:36:34;;;;;;;16.20;1.52;;;12.30;99.90;;;;;;5061605;28;20095;-57
2023/10/30 05:39:00;;;;;;;8.57;1.50;;;12.30;99.90;;;;;;5063786;28;20063;-55
2023/10/30 05:41:26;;;;;;;9.00;1.63;;;12.30;99.90;;;;;;5062065;28;20028;-58
2023/10/30 05:43:52;;;;;;;18.27;2.13;;;12.30;99.90;;;;;;5062596;28;20052;-59
2023/10/30 05:46:18;;;;;;;9.32;2.00;;;12.30;99.90;;;;;;5067635;28;20564;-58
2023/10/30 05:48:44;;;;;;;15.13;1.77;;;12.30;99.90;;;;;;5057332;28;20041;-58
2023/10/30 05:51:10;;;;;;;10.30;1.52;;;12.30;99.90;;;;;;5062134;28;20075;-58
2023/10/30 05:53:36;;;;;;;13.65;1.95;;;12.20;99.90;;;;;;5058790;28;20070;-57
2023/10/30 05:56:01;;;;;;;13.52;1.90;;;12.20;99.90;;;;;;5059412;28;20044;-54
2023/10/30 05:58:27;;;;;;;10.65;1.90;;;12.20;99.90;;;;;;5059798;28;20029;-60
2023/10/30 06:00:52;;;;;;;18.02;1.80;;;12.10;99.90;;;;;;5062631;28;20490;-59
2023/10/30 06:03:18;;;;;;;8.50;1.77;;;12.10;99.90;;;;;;5062911;28;20121;-57
2023/10/30 06:05:44;;;;;;;8.95;1.70;;;12.20;99.90;;;;;;5068407;28;20113;-55
2023/10/30 06:08:10;;;;;;;14.63;2.92;;;12.20;99.90;;;;;;5064812;28;20039;-53
2023/10/30 06:10:38;;;;;;;11.90;1.58;;;12.20;99.90;;;;;;5064530;28;20496;-57
2023/10/30 06:13:04;;;;;;;10.35;1.80;;;12.20;99.90;;;;;;5062216;28;20371;-60
2023/10/30 06:15:30;;;;;;;17.13;2.05;;;12.10;99.90;;;;;;5065648;28;20035;-56
2023/10/30 06:17:56;;;;;;;12.60;2.05;;;12.10;99.90;;;;;;5059601;28;20017;-58
2023/10/30 06:20:22;;;;;;;7.57;1.45;;;12.10;99.90;;;;;;5061303;28;20057;-58
2023/10/30 06:22:48;;;;;;;7.72;1.92;;;12.10;99.90;;;;;;5061079;28;20449;-56
2023/10/30 06:25:14;;;;;;;9.30;1.90;;;12.10;99.90;;;;;;5066572;28;20028;-58
2023/10/30 06:27:41;;;;;;;11.27;1.83;;;12.10;99.90;;;;;;5057759;28;20036;-58
2023/10/30 06:30:07;;;;;;;18.67;2.20;;;12.10;99.90;;;;;;5061271;28;20021;-56
2023/10/30 06:32:34;;;;;;;8.32;1.38;;;12.10;99.90;;;;;;5062848;28;20454;-56
2023/10/30 06:35:00;;;;;;;17.98;2.20;;;12.00;99.90;;;;;;5059601;28;20104;-58
2023/10/30 06:37:25;;;;;;;5.88;1.40;;;12.00;99.90;;;;;;5057198;28;20084;-54
2023/10/30 06:39:51;;;;;;;9.27;2.00;;;12.00;99.90;;;;;;5066751;28;20021;-57
2023/10/30 06:42:16;;;;;;;15.43;1.63;;;11.90;99.90;;;;;;5058210;28;20439;-54
2023/10/30 06:44:42;;;;;;;12.55;1.73;;;11.90;99.90;;;;;;5061441;28;20035;-53
2023/10/30 06:47:07;;;;;;;18.23;2.00;;;11.90;99.90;;;;;;5057721;28;20071;-55
2023/10/30 06:49:33;;;;;;;14.18;2.20;;;11.90;99.90;;;;;;5059104;28;20040;-58
2023/10/30 06:52:00;;;;;;;14.48;2.05;;;11.90;99.90;;;;;;5060679;28;20143;-56
2023/10/30 06:54:26;;;;;;;15.48;1.95;;;11.80;99.90;;;;;;5062692;28;20078;-56
2023/10/30 06:56:52;;;;;;;15.88;2.08;;;11.80;99.90;;;;;;5064069;28;20020;-60
2023/10/30 06:59:18;;;;;;;6.53;2.35;;;11.70;99.90;;;;;;5063218;28;20490;-60
2023/10/30 07:01:45;;;;;;;13.65;2.35;;;11.70;99.90;;;;;;5058635;28;20035;-54
2023/10/30 07:04:15;;;;;;;14.27;2.38;;;11.70;99.90;;;;;;5057338;28;20033;-56
2023/10/30 07:06:43;;;;;;;12.50;1.95;;;11.70;99.90;;;;;;5059172;28;20451;-59
2023/10/30 07:09:09;;;;;;;6.72;2.00;;;11.60;99.90;;;;;;5058205;28;20448;-59
2023/10/30 07:11:36;;;;;;;12.48;2.30;;;11.60;99.90;;;;;;5055708;28;20072;-54
2023/10/30 07:14:02;;;;;;;10.13;2.47;;;11.60;99.90;;;;;;5060630;28;20037;-58
2023/10/30 07:16:31;;;;;;;11.20;2.28;;;11.60;99.90;;;;;;5057964;28;20036;-54
2023/10/30 07:18:58;;;;;;;10.57;2.83;;;11.60;99.90;;;;;;5052875;28;20033;-60
2023/10/30 07:21:25;;;;;;;7.80;2.08;;;11.60;99.90;;;;;;5065315;28;20103;-55
2023/10/30 07:23:51;;;;;;;12.80;2.85;;;11.60;99.90;;;;;;5055762;28;20025;-57
2023/10/30 07:26:17;;;;;;;10.15;2.50;;;11.60;99.90;;;;;;5065410;28;20075;-57
2023/10/30 07:28:43;;;;;;;16.15;2.97;;;11.60;99.90;;;;;;5056727;28;20040;-56
2023/10/30 07:31:09;;;;;;;10.77;2.58;;;11.60;99.90;;;;;;5057422;28;20032;-54
2023/10/30 07:33:34;;;;;;;13.65;2.65;;;11.60;99.90;;;;;;5052851;28;20021;-56
2023/10/30 07:36:01;;;;;;;10.55;3.53;;;11.60;99.90;;;;;;5059044;28;20021;-54
2023/10/30 07:38:30;;;;;;;11.27;2.50;;;11.70;99.90;;;;;;5058957;28;20191;-54
2023/10/30 07:40:55;;;;;;;16.13;3.25;;;11.70;99.90;;;;;;5061530;28;20029;-57
2023/10/30 07:43:21;;;;;;;18.05;3.22;;;11.80;99.90;;;;;;5060350;28;20078;-56
2023/10/30 07:45:48;;;;;;;11.10;2.72;;;11.80;99.90;;;;;;5057229;28;20029;-58
2023/10/30 07:48:14;;;;;;;12.75;2.72;;;11.80;99.90;;;;;;5051404;28;20435;-58
2023/10/30 07:50:40;;;;;;;14.00;2.85;;;11.90;99.90;;;;;;5062188;28;20039;-56
2023/10/30 07:53:06;;;;;;;15.27;3.70;;;11.90;99.90;;;;;;5059312;28;20078;-62
2023/10/30 07:55:32;;;;;;;24.98;4.45;;;11.90;99.90;;;;;;5059411;28;20041;-58
2023/10/30 07:57:58;;;;;;;19.58;4.05;;;12.00;99.90;;;;;;5056578;28;20478;-56
2023/10/30 08:00:23;;;;;;;16.77;3.88;;;12.00;99.90;;;;;;5059000;28;20063;-61
2023/10/30 08:02:49;;;;;;;20.30;3.95;;;12.00;99.90;;;;;;5055621;28;20025;-55
2023/10/30 08:05:15;;;;;;;15.90;3.45;;;12.10;99.90;;;;;;5059625;28;20044;-60
2023/10/30 08:07:47;;;;;;;18.13;3.38;;;12.20;99.90;;;;;;5062235;28;20032;-58
2023/10/30 08:10:13;;;;;;;15.98;3.72;;;12.30;99.90;;;;;;5061720;28;20078;-57
2023/10/30 08:12:40;;;;;;;13.35;3.25;;;12.40;99.90;;;;;;5067495;28;20040;-58
2023/10/30 08:15:06;;;;;;;10.43;2.92;;;12.40;99.90;;;;;;5057207;28;20129;-58
2023/10/30 08:17:32;;;;;;;11.75;3.55;;;12.50;99.90;;;;;;5056502;28;20033;-59
2023/10/30 08:19:58;;;;;;;18.63;3.22;;;12.60;99.90;;;;;;5054781;28;20051;-59
2023/10/30 08:22:24;;;;;;;8.80;3.40;;;12.70;99.90;;;;;;5052089;28;20033;-53
2023/10/30 08:24:50;;;;;;;11.18;3.22;;;12.70;99.90;;;;;;5054236;28;20033;-59
2023/10/30 08:27:15;;;;;;;11.20;4.03;;;12.90;99.90;;;;;;5065917;28;20130;-53
2023/10/30 08:29:41;;;;;;;8.70;3.70;;;12.90;99.90;;;;;;5058914;28;20055;-58
2023/10/30 08:32:07;;;;;;;11.13;2.95;;;13.00;99.90;;;;;;5059504;28;20442;-57
2023/10/30 08:34:32;;;;;;;9.20;2.63;;;13.10;99.90;;;;;;5059882;28;20029;-56
2023/10/30 08:36:58;;;;;;;11.23;2.95;;;13.20;99.90;;;;;;5060847;28;20457;-58
2023/10/30 08:39:23;;;;;;;10.70;2.60;;;13.30;99.90;;;;;;5063645;28;20090;-59
2023/10/30 08:41:49;;;;;;;11.18;3.25;;;13.40;99.90;;;;;;5065529;28;20521;-59
2023/10/30 08:44:14;;;;;;;14.98;2.90;;;13.50;99.90;;;;;;5062070;28;20031;-58
2023/10/30 08:46:40;;;;;;;11.02;3.00;;;13.70;99.90;;;;;;5071412;28;20470;-58
2023/10/30 08:49:05;;;;;;;7.85;2.30;;;13.80;99.90;;;;;;5057841;28;20108;-57
2023/10/30 08:51:31;;;;;;;6.45;2.13;;;13.90;99.90;;;;;;5077027;28;20053;-58
2023/10/30 08:53:57;;;;;;;15.60;2.35;;;14.00;99.90;;;;;;5063820;28;20483;-54
2023/10/30 08:56:22;;;;;;;9.65;2.35;;;14.00;99.90;;;;;;5067171;28;20030;-53
2023/10/30 08:58:48;;;;;;;6.30;1.70;;;14.10;99.90;;;;;;5061496;28;20116;-58
2023/10/30 09:01:14;;;;;;;10.15;2.13;;;14.20;99.90;;;;;;5075260;28;20021;-58
2023/10/30 09:03:43;;;;;;;8.55;2.22;;;14.20;99.90;;;;;;5071020;28;20035;-55
2023/10/30 09:06:09;;;;;;;10.10;2.35;;;14.20;99.90;;;;;;5075039;28;20025;-62
2023/10/30 09:08:35;;;;;;;5.82;2.30;;;14.30;99.90;;;;;;5064911;28;20513;-58
2023/10/30 09:11:00;;;;;;;3.97;1.70;;;14.30;99.90;;;;;;5070058;28;20036;-55
2023/10/30 09:13:26;;;;;;;6.22;1.60;;;14.40;99.90;;;;;;5060654;28;20024;-57
2023/10/30 09:15:51;;;;;;;6.78;1.88;;;14.40;99.90;;;;;;5064618;28;20041;-58
2023/10/30 09:18:17;;;;;;;4.50;1.70;;;14.40;99.90;;;;;;5065329;28;20039;-57
2023/10/30 09:20:42;;;;;;;3.88;1.27;;;14.50;99.90;;;;;;5063358;28;20055;-56
2023/10/30 09:23:08;;;;;;;6.07;1.23;;;14.60;99.90;;;;;;5068456;28;20042;-58
2023/10/30 09:25:33;;;;;;;4.50;1.30;;;14.70;99.90;;;;;;5074481;28;20150;-58
2023/10/30 09:28:00;;;;;;;7.43;1.35;;;14.70;99.90;;;;;;5065759;28;20028;-53
2023/10/30 09:30:30;;;;;;;9.52;2.22;;;14.70;99.90;;;;;;5069847;28;20045;-54
2023/10/30 09:32:59;;;;;;;7.97;1.30;;;14.80;99.90;;;;;;5075743;28;20039;-57
2023/10/30 09:35:31;;;;;;;6.55;1.40;;;14.90;99.90;;;;;;5065657;28;20021;-54
2023/10/30 09:38:00;;;;;;;4.55;1.50;;;14.90;99.90;;;;;;5076579;28;20443;-53
2023/10/30 09:40:26;;;;;;;5.32;1.13;;;15.00;99.90;;;;;;5066655;28;20365;-52
2023/10/30 09:42:53;;;;;;;5.18;1.67;;;15.00;99.90;;;;;;5067647;28;20024;-52
2023/10/30 09:45:23;;;;;;;13.10;1.65;;;15.00;99.90;;;;;;5059872;28;20037;-58
2023/10/30 09:47:54;;;;;;;4.65;1.10;;;14.90;99.90;;;;;;5059998;28;20036;-54
2023/10/30 09:50:21;;;;;;;3.00;1.30;;;15.00;99.90;;;;;;5061509;28;20035;-55
2023/10/30 09:52:48;;;;;;;7.20;1.67;;;14.90;99.90;;;;;;5071988;28;20016;-56
2023/10/30 09:55:17;;;;;;;3.45;1.60;;;14.80;99.90;;;;;;5060372;28;20041;-54
2023/10/30 09:57:43;;;;;;;12.52;2.97;;;14.80;99.90;;;;;;5080761;28;20012;-54
2023/10/30 10:00:09;;;;;;;9.18;2.58;;;14.70;99.90;;;;;;5056415;28;20510;-56
2023/10/30 10:02:34;;;;;;;9.63;2.70;;;14.80;99.90;;;;;;5077184;28;20426;-55
2023/10/30 10:05:00;;;;;;;11.93;2.75;;;14.80;99.90;;;;;;5069793;28;20028;-56
2023/10/30 10:07:26;;;;;;;5.22;1.98;;;14.80;99.90;;;;;;5077121;28;20558;-58
2023/10/30 10:10:00;;;;;;;5.50;1.90;;;14.90;99.90;;;;;;5065351;28;20036;-57
2023/10/30 10:12:26;;;;;;;4.22;1.70;;;15.00;99.90;;;;;;5064298;28;20025;-57
2023/10/30 10:14:52;;;;;;;9.75;1.75;;;15.00;99.90;;;;;;5058768;28;20373;-58
2023/10/30 10:17:17;;;;;;;4.82;1.88;;;15.10;99.90;;;;;;5062877;28;20028;-57
2023/10/30 10:19:47;;;;;;;3.45;1.73;;;15.00;99.90;;;;;;5070452;28;20059;-57
2023/10/30 10:22:29;;;;;;;4.00;1.33;;;15.10;99.90;;;;;;5062532;28;20024;-58
2023/10/30 10:24:55;;;;;;;3.38;1.48;;;15.10;99.90;;;;;;5077315;28;20023;-58
2023/10/30 10:27:22;;;;;;;3.33;1.05;;;15.10;99.90;;;;;;5068261;28;20096;-59
2023/10/30 10:29:53;;;;;;;6.63;1.17;;;15.20;99.90;;;;;;5073113;28;20428;-58
2023/10/30 10:32:19;;;;;;;5.07;1.25;;;15.20;99.90;;;;;;5063760;28;20390;-57
2023/10/30 10:34:48;;;;;;;3.00;1.30;;;15.30;99.90;;;;;;5079876;28;20058;-58
2023/10/30 10:37:17;;;;;;;2.95;1.70;;;15.30;99.90;;;;;;5062891;28;20043;-59
2023/10/30 10:39:50;;;;;;;4.43;1.30;;;15.30;99.90;;;;;;5069126;28;20024;-60
2023/10/30 10:42:20;;;;;;;4.35;2.15;;;15.30;99.90;;;;;;5062384;28;20555;-60
2023/10/30 10:44:47;;;;;;;3.03;1.77;;;15.30;99.90;;;;;;5062575;28;20052;-56
2023/10/30 10:47:13;;;;;;;3.42;1.60;;;15.30;99.90;;;;;;5058398;28;20028;-59
2023/10/30 10:49:39;;;;;;;2.67;1.65;;;15.40;99.90;;;;;;5076783;28;20024;-58
2023/10/30 10:52:09;;;;;;;5.13;1.20;;;15.40;99.90;;;;;;5062402;28;20056;-58
2023/10/30 10:54:56;;;;;;;5.90;1.58;;;15.30;99.90;;;;;;5076919;28;20112;-58
2023/10/30 10:57:21;;;;;;;48.13;3.80;;;15.40;99.90;;;;;;5062575;28;20055;-57
2023/10/30 10:59:58;;;;;;;33.40;2.33;;;15.40;99.90;;;;;;5065670;28;20097;-60
2023/10/30 11:02:37;;;;;;;21.33;2.40;;;15.40;99.90;;;;;;5067651;28;20016;-60
2023/10/30 11:05:05;;;;;;;7.68;1.30;;;15.50;99.90;;;;;;5066137;28;20028;-59
2023/10/30 11:07:54;;;;;;;2.88;0.93;;;15.50;99.90;;;;;;5081527;28;20107;-60
2023/10/30 11:10:31;;;;;;;8.60;1.10;;;15.90;99.90;;;;;;5058987;28;20103;-57
2023/10/30 11:13:25;;;;;;;1.30;0.80;;;16.30;99.90;;;;;;5077126;28;20036;-58
2023/10/30 11:15:59;;;;;;;4.07;1.07;;;16.90;99.90;;;;;;5063882;28;20047;-55
2023/10/30 11:18:27;;;;;;;7.25;0.90;;;17.10;99.90;;;;;;5073482;28;20009;-60
2023/10/30 11:21:11;;;;;;;2.33;0.80;;;17.00;99.90;;;;;;5056785;28;20059;-58
2023/10/30 11:23:58;;;;;;;1.52;0.70;;;16.70;99.90;;;;;;5066304;28;20088;-57
2023/10/30 11:26:29;;;;;;;4.80;0.85;;;16.70;99.90;;;;;;5066737;28;20037;-60
2023/10/30 11:28:55;;;;;;;3.35;0.88;;;16.50;99.90;;;;;;5062741;28;20032;-60
2023/10/30 11:31:21;;;;;;;4.47;0.50;;;16.40;99.90;;;;;;5076388;28;20368;-58
2023/10/30 11:33:48;;;;;;;3.33;0.73;;;16.40;99.90;;;;;;5061939;28;20376;-54
2023/10/30 11:36:18;;;;;;;5.05;0.88;;;16.30;99.90;;;;;;5069872;28;20029;-58
2023/10/30 11:39:06;;;;;;;1.25;0.60;;;16.30;99.90;;;;;;5069354;28;20493;-55
2023/10/30 11:41:36;;;;;;;3.30;0.93;;;16.30;99.90;;;;;;5067927;28;20486;-52
2023/10/30 11:44:12;;;;;;;6.53;0.80;;;16.30;99.90;;;;;;5060273;28;20027;-57
2023/10/30 11:46:42;;;;;;;0.82;0.43;;;16.10;99.90;;;;;;5064410;28;20051;-56
2023/10/30 11:49:09;;;;;;;3.38;0.77;;;16.10;99.90;;;;;;5054037;28;20407;-59
2023/10/30 11:51:42;;;;;;;1.65;0.80;;;16.00;99.90;;;;;;5074055;28;20077;-60
2023/10/30 11:54:08;;;;;;;3.90;0.80;;;15.90;99.90;;;;;;5076617;28;20646;-57
2023/10/30 11:56:34;;;;;;;1.52;0.60;;;15.90;99.90;;;;;;5065986;28;20116;-58
2023/10/30 11:58:59;;;;;;;1.48;0.63;;;15.80;99.90;;;;;;5059512;28;20096;-56
2023/10/30 12:01:25;;;;;;;1.40;0.70;;;15.90;99.90;;;;;;5063303;28;20024;-54
2023/10/30 12:03:51;;;;;;;2.88;0.77;;;15.80;99.90;;;;;;5063198;28;20024;-59
2023/10/30 12:06:16;;;;;;;0.93;0.45;;;15.80;99.90;;;;;;5061285;28;20021;-57
2023/10/30 12:08:42;;;;;;;1.85;0.45;;;15.80;99.90;;;;;;5067893;28;20021;-58
2023/10/30 12:11:09;;;;;;;0.80;0.50;;;15.80;99.90;;;;;;5058782;28;20391;-55
2023/10/30 12:13:35;;;;;;;1.88;0.80;;;15.80;99.90;;;;;;5073467;28;20482;-58
2023/10/30 12:16:00;;;;;;;0.73;0.40;;;15.70;99.90;;;;;;5062883;28;20045;-58
2023/10/30 12:18:26;;;;;;;1.10;0.55;;;15.80;99.90;;;;;;5078045;28;21495;-59
2023/10/30 12:20:52;;;;;;;1.08;0.40;;;15.90;99.90;;;;;;5061859;28;20016;-58
2023/10/30 12:23:17;;;;;;;0.88;0.50;;;15.90;99.90;;;;;;5079215;28;20017;-57
2023/10/30 12:25:44;;;;;;;0.68;0.47;;;15.90;99.90;;;;;;5071141;28;20998;-53
2023/10/30 12:28:09;;;;;;;1.65;0.60;;;15.90;99.90;;;;;;5069840;28;20078;-52
2023/10/30 12:30:35;;;;;;;0.98;0.60;;;15.90;99.90;;;;;;5062597;28;20029;-51
2023/10/30 12:33:01;;;;;;;0.47;0.30;;;15.90;99.90;;;;;;5068979;28;20431;-56
2023/10/30 12:35:27;;;;;;;0.95;0.40;;;15.90;99.90;;;;;;5061998;28;20025;-56
2023/10/30 12:37:52;;;;;;;1.35;0.40;;;15.90;99.90;;;;;;5063854;28;20031;-55